Celandine — ONDN — position and weather

sailwx.info

Track history (hours):
 
Tides and Currents Weather Stations Pressure Air Temp Water Temp Dewpoint Dewpoint Depression Visibility Wind Speed Wind Dir Waves Ship Positions

Celandine

Last reported at 2015-Aug-01 01:34 UTC. Time now 2015-Aug-01 09:49 UTC.
Position N 52°29' W 005°50'.

Length 162 m; draft 6.1 m.

Type: Ship (hazmat cat A). MMSI: 205476000.

Date/timePositionNaut miles runAvg speedWind from/ knotsBaromVisibWave heightAir tempDewpointWater temp
2015-Aug-01 01:34N 52°29' W 005°50'1613.5
2015-Aug-01 00:21N 52°13' W 005°49'17810.0
2015-Jul-31 06:33N 50°04' W 002°32'3514.2
2015-Jul-31 04:07N 50°14' W 001°41'915.9
2015-Jul-31 03:33N 50°16' W 001°27'2417.3
2015-Jul-31 02:10N 50°22' W 000°51'2817.1
2015-Jul-31 00:31N 50°30' W 000°08'1717.2
2015-Jul-30 23:33N 50°35' E 000°17'1616.2
2015-Jul-30 22:33N 50°40' E 000°41'1515.4
2015-Jul-30 21:33N 50°49' E 001°01'1515.4
2015-Jul-30 20:33N 50°59' E 001°19'1818.1
2015-Jul-30 19:33N 51°11' E 001°40'1818.3
2015-Jul-30 18:33N 51°24' E 002°01'1616.1
2015-Jul-30 17:33N 51°22' E 002°26'1716.6
2015-Jul-30 16:32N 51°23' E 002°53'12 3.9
2015-Jul-30 13:27N 51°20' E 003°13'0 0.0
2015-Jul-30 12:27N 51°20' E 003°13'0 0.0
2015-Jul-30 10:18N 51°20' E 003°13'0 0.0
2015-Jul-30 08:09N 51°20' E 003°13'0 0.0
2015-Jul-30 07:30N 51°20' E 003°13'0 0.0
2015-Jul-30 05:33N 51°20' E 003°13'0 0.3
2015-Jul-30 04:33N 51°21' E 003°13'0 0.0
2015-Jul-30 03:31N 51°21' E 003°13'0 0.0
2015-Jul-30 02:31N 51°21' E 003°13'0 0.0
2015-Jul-30 01:28N 51°21' E 003°13'0 0.0
2015-Jul-30 00:31N 51°21' E 003°13'0 0.0
2015-Jul-29 23:28N 51°21' E 003°13'0 0.0
2015-Jul-29 22:31N 51°21' E 003°13'0 0.0
2015-Jul-29 21:28N 51°21' E 003°13'0 0.0
2015-Jul-29 20:31N 51°21' E 003°13'0 0.0
2015-Jul-29 19:31N 51°21' E 003°13'5 5.5
2015-Jul-29 18:33N 51°24' E 003°06'1515.4
2015-Jul-29 17:33N 51°32' E 002°45'1514.6
2015-Jul-29 16:32N 51°34' E 002°21'1515.3
2015-Jul-29 15:33N 51°32' E 001°57'1716.5
2015-Jul-29 14:34N 51°29' E 001°31'1717.2
2015-Jul-29 13:34N 51°30' E 001°04'1717.1
2015-Jul-29 12:33N 51°30' E 000°36'1110.9
2015-Jul-29 11:33N 51°28' E 000°19'2 2.5
2015-Jul-29 10:33N 51°28' E 000°15'0 0.0
2015-Jul-29 09:33N 51°28' E 000°15'0 0.0
2015-Jul-29 08:33N 51°28' E 000°15'0 0.0
2015-Jul-29 07:33N 51°28' E 000°15'0 0.0
2015-Jul-29 06:33N 51°28' E 000°15'0 0.0
2015-Jul-29 05:33N 51°28' E 000°15'6 6.3
2015-Jul-29 04:33N 51°27' E 000°25'1212.0
2015-Jul-29 03:33N 51°30' E 000°44'1413.7
2015-Jul-29 02:33N 51°30' E 001°06'1313.4
2015-Jul-29 01:34N 51°29' E 001°27'1414.4
2015-Jul-29 00:34N 51°32' E 001°50'1414.1
2015-Jul-28 23:33N 51°35' E 002°12'1814.1
2015-Jul-28 22:18N 51°34' E 002°40'1114.1
2015-Jul-28 21:33N 51°28' E 002°55'1313.2
2015-Jul-28 20:34N 51°21' E 003°12'1 0.6
2015-Jul-28 19:31N 51°21' E 003°13'0 0.0
2015-Jul-28 18:31N 51°21' E 003°13'0 0.0
2015-Jul-28 17:31N 51°21' E 003°13'0 0.0
2015-Jul-28 16:31N 51°21' E 003°13'0 0.0
2015-Jul-28 15:31N 51°21' E 003°13'0 0.0
2015-Jul-28 14:31N 51°21' E 003°13'0 0.0
2015-Jul-28 13:31N 51°21' E 003°13'6 6.1
2015-Jul-28 12:33N 51°24' E 003°05'1515.0
2015-Jul-28 11:33N 51°32' E 002°45'1615.8
2015-Jul-28 10:33N 51°35' E 002°20'1616.0
2015-Jul-28 09:33N 51°34' E 001°54'1716.6
2015-Jul-28 08:33N 51°29' E 001°29'1514.7
2015-Jul-28 07:33N 51°29' E 001°06'1414.5
2015-Jul-28 06:33N 51°30' E 000°42'1212.1
2015-Jul-28 05:34N 51°27' E 000°24'5 5.4
2015-Jul-28 04:34N 51°28' E 000°15'0 0.0
2015-Jul-28 03:33N 51°28' E 000°15'0 0.0
2015-Jul-28 02:34N 51°28' E 000°15'0 0.0
2015-Jul-28 01:33N 51°28' E 000°15'0 0.0
2015-Jul-28 00:33N 51°28' E 000°15'0 0.0
2015-Jul-27 23:34N 51°28' E 000°15'2 1.5
2015-Jul-27 22:34N 51°28' E 000°18'9 8.6
2015-Jul-27 21:33N 51°30' E 000°31'1514.6
2015-Jul-27 20:33N 51°29' E 000°54'1515.2
2015-Jul-27 19:34N 51°29' E 001°19'1414.0
2015-Jul-27 18:33N 51°29' E 001°41'1211.8
2015-Jul-27 17:32N 51°27' E 002°00'1212.1
2015-Jul-27 16:33N 51°20' E 002°16'1513.0
2015-Jul-27 15:24N 51°23' E 002°40'1415.9
2015-Jul-27 14:33N 51°24' E 003°01'8 8.2
2015-Jul-27 13:33N 51°21' E 003°13'0 0.0
2015-Jul-27 12:33N 51°21' E 003°13'0 0.0
2015-Jul-27 11:33N 51°21' E 003°13'0 0.0
2015-Jul-27 10:33N 51°21' E 003°13'0 0.0
2015-Jul-27 09:33N 51°21' E 003°13'0 0.2
2015-Jul-27 08:32N 51°20' E 003°13'0 0.0
2015-Jul-27 07:32N 51°20' E 003°13'0 0.0
2015-Jul-27 06:33N 51°20' E 003°13'0 0.0
2015-Jul-27 05:33N 51°20' E 003°13'0 0.0
2015-Jul-27 04:31N 51°20' E 003°13'3 3.2
2015-Jul-27 03:34N 51°23' E 003°10'1312.6
2015-Jul-27 02:33N 51°22' E 002°50'1313.2
2015-Jul-27 01:33N 51°21' E 002°28'1313.3
2015-Jul-27 00:33N 51°15' E 002°09'1313.4
2015-Jul-26 23:33N 51°08' E 001°51'1614.1
2015-Jul-26 22:25N 50°57' E 001°33'28510.6
2015-Jul-25 19:25N 51°46' W 005°57'1516.9
2015-Jul-25 18:33N 52°00' W 005°54'1716.6
2015-Jul-25 17:34N 52°17' W 005°53'1615.8
2015-Jul-25 16:33N 52°33' W 005°52'2 0.1
2015-Jul-25 01:33N 52°32' W 005°50'1714.6
2015-Jul-25 00:23N 52°15' W 005°49'20410.2
2015-Jul-24 04:26N 50°17' W 001°23'4415.3
2015-Jul-24 01:32N 50°29' W 000°16'1515.0
2015-Jul-24 00:33N 50°33' E 000°06'1515.2
2015-Jul-23 23:33N 50°37' E 000°29'1616.4
2015-Jul-23 22:33N 50°45' E 000°51'1716.9
2015-Jul-23 21:33N 50°56' E 001°13'1616.3
2015-Jul-23 20:33N 51°06' E 001°32'1515.1
2015-Jul-23 19:33N 51°17' E 001°49'1312.5
2015-Jul-23 18:33N 51°24' E 002°06'1413.7
2015-Jul-23 17:33N 51°23' E 002°28'1414.3
2015-Jul-23 16:33N 51°24' E 002°51'1313.3
2015-Jul-23 15:33N 51°22' E 003°12'1 0.1
2015-Jul-23 06:24N 51°20' E 003°13'0 0.0
2015-Jul-23 05:33N 51°20' E 003°13'0 0.0
2015-Jul-23 04:03N 51°20' E 003°13'0 0.0
2015-Jul-23 03:21N 51°20' E 003°13'0 0.0
2015-Jul-23 02:27N 51°20' E 003°13'0 0.0
2015-Jul-22 22:33N 51°20' E 003°13'0 0.2
2015-Jul-22 21:32N 51°21' E 003°13'0 0.0
2015-Jul-22 20:32N 51°21' E 003°13'0 0.0
2015-Jul-22 19:33N 51°21' E 003°13'9 8.8
2015-Jul-22 18:33N 51°25' E 003°01'1615.7
2015-Jul-22 17:33N 51°35' E 002°40'1717.0
2015-Jul-22 16:34N 51°35' E 002°13'1616.3
2015-Jul-22 15:34N 51°32' E 001°47'1615.8
2015-Jul-22 14:33N 51°29' E 001°23'1414.2
2015-Jul-22 13:33N 51°29' E 000°60'1414.2
2015-Jul-22 12:33N 51°30' E 000°37'1110.6
2015-Jul-22 11:33N 51°27' E 000°21'4 3.8
2015-Jul-22 10:33N 51°28' E 000°15'0 0.0
2015-Jul-22 09:33N 51°28' E 000°15'0 0.0
2015-Jul-22 08:34N 51°28' E 000°15'0 0.0
2015-Jul-22 07:33N 51°28' E 000°15'0 0.0
2015-Jul-22 06:33N 51°28' E 000°15'0 0.0
2015-Jul-22 05:33N 51°28' E 000°15'1 0.5
2015-Jul-22 04:34N 51°28' E 000°16'9 9.2
2015-Jul-22 03:34N 51°30' E 000°30'1414.2
2015-Jul-22 02:34N 51°29' E 000°53'1615.6
2015-Jul-22 01:34N 51°29' E 001°18'  
Track history (hours):
 
Tides and Currents Weather Stations Pressure Air Temp Water Temp Dewpoint Dewpoint Depression Visibility Wind Speed Wind Dir Waves Ship Positions

Celandine

Last reported at 2015-Aug-01 01:34 UTC. Time now 2015-Aug-01 09:49 UTC.
Position N 52°29' W 005°50'.

Length 162 m; draft 6.1 m.

Type: Ship (hazmat cat A). MMSI: 205476000.

Date/timePositionNaut miles runAvg speedWind from/ knotsBaromVisibWave heightAir tempDewpointWater temp
2015-Aug-01 01:34N 52°29' W 005°50'1613.5
2015-Aug-01 00:21N 52°13' W 005°49'17810.0
2015-Jul-31 06:33N 50°04' W 002°32'3514.2
2015-Jul-31 04:07N 50°14' W 001°41'915.9
2015-Jul-31 03:33N 50°16' W 001°27'2417.3
2015-Jul-31 02:10N 50°22' W 000°51'2817.1
2015-Jul-31 00:31N 50°30' W 000°08'1717.2
2015-Jul-30 23:33N 50°35' E 000°17'1616.2
2015-Jul-30 22:33N 50°40' E 000°41'1515.4
2015-Jul-30 21:33N 50°49' E 001°01'1515.4
2015-Jul-30 20:33N 50°59' E 001°19'1818.1
2015-Jul-30 19:33N 51°11' E 001°40'1818.3
2015-Jul-30 18:33N 51°24' E 002°01'1616.1
2015-Jul-30 17:33N 51°22' E 002°26'1716.6
2015-Jul-30 16:32N 51°23' E 002°53'12 3.9
2015-Jul-30 13:27N 51°20' E 003°13'0 0.0
2015-Jul-30 12:27N 51°20' E 003°13'0 0.0
2015-Jul-30 10:18N 51°20' E 003°13'0 0.0
2015-Jul-30 08:09N 51°20' E 003°13'0 0.0
2015-Jul-30 07:30N 51°20' E 003°13'0 0.0
2015-Jul-30 05:33N 51°20' E 003°13'0 0.3
2015-Jul-30 04:33N 51°21' E 003°13'0 0.0
2015-Jul-30 03:31N 51°21' E 003°13'0 0.0
2015-Jul-30 02:31N 51°21' E 003°13'0 0.0
2015-Jul-30 01:28N 51°21' E 003°13'0 0.0
2015-Jul-30 00:31N 51°21' E 003°13'0 0.0
2015-Jul-29 23:28N 51°21' E 003°13'0 0.0
2015-Jul-29 22:31N 51°21' E 003°13'0 0.0
2015-Jul-29 21:28N 51°21' E 003°13'0 0.0
2015-Jul-29 20:31N 51°21' E 003°13'0 0.0
2015-Jul-29 19:31N 51°21' E 003°13'5 5.5
2015-Jul-29 18:33N 51°24' E 003°06'1515.4
2015-Jul-29 17:33N 51°32' E 002°45'1514.6
2015-Jul-29 16:32N 51°34' E 002°21'1515.3
2015-Jul-29 15:33N 51°32' E 001°57'1716.5
2015-Jul-29 14:34N 51°29' E 001°31'1717.2
2015-Jul-29 13:34N 51°30' E 001°04'1717.1
2015-Jul-29 12:33N 51°30' E 000°36'1110.9
2015-Jul-29 11:33N 51°28' E 000°19'2 2.5
2015-Jul-29 10:33N 51°28' E 000°15'0 0.0
2015-Jul-29 09:33N 51°28' E 000°15'0 0.0
2015-Jul-29 08:33N 51°28' E 000°15'0 0.0
2015-Jul-29 07:33N 51°28' E 000°15'0 0.0
2015-Jul-29 06:33N 51°28' E 000°15'0 0.0
2015-Jul-29 05:33N 51°28' E 000°15'6 6.3
2015-Jul-29 04:33N 51°27' E 000°25'1212.0
2015-Jul-29 03:33N 51°30' E 000°44'1413.7
2015-Jul-29 02:33N 51°30' E 001°06'1313.4
2015-Jul-29 01:34N 51°29' E 001°27'1414.4
2015-Jul-29 00:34N 51°32' E 001°50'1414.1
2015-Jul-28 23:33N 51°35' E 002°12'1814.1
2015-Jul-28 22:18N 51°34' E 002°40'1114.1
2015-Jul-28 21:33N 51°28' E 002°55'1313.2
2015-Jul-28 20:34N 51°21' E 003°12'1 0.6
2015-Jul-28 19:31N 51°21' E 003°13'0 0.0
2015-Jul-28 18:31N 51°21' E 003°13'0 0.0
2015-Jul-28 17:31N 51°21' E 003°13'0 0.0
2015-Jul-28 16:31N 51°21' E 003°13'0 0.0
2015-Jul-28 15:31N 51°21' E 003°13'0 0.0
2015-Jul-28 14:31N 51°21' E 003°13'0 0.0
2015-Jul-28 13:31N 51°21' E 003°13'6 6.1
2015-Jul-28 12:33N 51°24' E 003°05'1515.0
2015-Jul-28 11:33N 51°32' E 002°45'1615.8
2015-Jul-28 10:33N 51°35' E 002°20'1616.0
2015-Jul-28 09:33N 51°34' E 001°54'1716.6
2015-Jul-28 08:33N 51°29' E 001°29'1514.7
2015-Jul-28 07:33N 51°29' E 001°06'1414.5
2015-Jul-28 06:33N 51°30' E 000°42'1212.1
2015-Jul-28 05:34N 51°27' E 000°24'5 5.4
2015-Jul-28 04:34N 51°28' E 000°15'0 0.0
2015-Jul-28 03:33N 51°28' E 000°15'0 0.0
2015-Jul-28 02:34N 51°28' E 000°15'0 0.0
2015-Jul-28 01:33N 51°28' E 000°15'0 0.0
2015-Jul-28 00:33N 51°28' E 000°15'0 0.0
2015-Jul-27 23:34N 51°28' E 000°15'2 1.5
2015-Jul-27 22:34N 51°28' E 000°18'9 8.6
2015-Jul-27 21:33N 51°30' E 000°31'1514.6
2015-Jul-27 20:33N 51°29' E 000°54'1515.2
2015-Jul-27 19:34N 51°29' E 001°19'1414.0
2015-Jul-27 18:33N 51°29' E 001°41'1211.8
2015-Jul-27 17:32N 51°27' E 002°00'1212.1
2015-Jul-27 16:33N 51°20' E 002°16'1513.0
2015-Jul-27 15:24N 51°23' E 002°40'1415.9
2015-Jul-27 14:33N 51°24' E 003°01'8 8.2
2015-Jul-27 13:33N 51°21' E 003°13'0 0.0
2015-Jul-27 12:33N 51°21' E 003°13'0 0.0
2015-Jul-27 11:33N 51°21' E 003°13'0 0.0
2015-Jul-27 10:33N 51°21' E 003°13'0 0.0
2015-Jul-27 09:33N 51°21' E 003°13'0 0.2
2015-Jul-27 08:32N 51°20' E 003°13'0 0.0
2015-Jul-27 07:32N 51°20' E 003°13'0 0.0
2015-Jul-27 06:33N 51°20' E 003°13'0 0.0
2015-Jul-27 05:33N 51°20' E 003°13'0 0.0
2015-Jul-27 04:31N 51°20' E 003°13'3 3.2
2015-Jul-27 03:34N 51°23' E 003°10'1312.6
2015-Jul-27 02:33N 51°22' E 002°50'1313.2
2015-Jul-27 01:33N 51°21' E 002°28'1313.3
2015-Jul-27 00:33N 51°15' E 002°09'1313.4
2015-Jul-26 23:33N 51°08' E 001°51'1614.1
2015-Jul-26 22:25N 50°57' E 001°33'28510.6
2015-Jul-25 19:25N 51°46' W 005°57'1516.9
2015-Jul-25 18:33N 52°00' W 005°54'1716.6
2015-Jul-25 17:34N 52°17' W 005°53'1615.8
2015-Jul-25 16:33N 52°33' W 005°52'2 0.1
2015-Jul-25 01:33N 52°32' W 005°50'1714.6
2015-Jul-25 00:23N 52°15' W 005°49'20410.2
2015-Jul-24 04:26N 50°17' W 001°23'4415.3
2015-Jul-24 01:32N 50°29' W 000°16'1515.0
2015-Jul-24 00:33N 50°33' E 000°06'1515.2
2015-Jul-23 23:33N 50°37' E 000°29'1616.4
2015-Jul-23 22:33N 50°45' E 000°51'1716.9
2015-Jul-23 21:33N 50°56' E 001°13'1616.3
2015-Jul-23 20:33N 51°06' E 001°32'1515.1
2015-Jul-23 19:33N 51°17' E 001°49'1312.5
2015-Jul-23 18:33N 51°24' E 002°06'1413.7
2015-Jul-23 17:33N 51°23' E 002°28'1414.3
2015-Jul-23 16:33N 51°24' E 002°51'1313.3
2015-Jul-23 15:33N 51°22' E 003°12'1 0.1
2015-Jul-23 06:24N 51°20' E 003°13'0 0.0
2015-Jul-23 05:33N 51°20' E 003°13'0 0.0
2015-Jul-23 04:03N 51°20' E 003°13'0 0.0
2015-Jul-23 03:21N 51°20' E 003°13'0 0.0
2015-Jul-23 02:27N 51°20' E 003°13'0 0.0
2015-Jul-22 22:33N 51°20' E 003°13'0 0.2
2015-Jul-22 21:32N 51°21' E 003°13'0 0.0
2015-Jul-22 20:32N 51°21' E 003°13'0 0.0
2015-Jul-22 19:33N 51°21' E 003°13'9 8.8
2015-Jul-22 18:33N 51°25' E 003°01'1615.7
2015-Jul-22 17:33N 51°35' E 002°40'1717.0
2015-Jul-22 16:34N 51°35' E 002°13'1616.3
2015-Jul-22 15:34N 51°32' E 001°47'1615.8
2015-Jul-22 14:33N 51°29' E 001°23'1414.2
2015-Jul-22 13:33N 51°29' E 000°60'1414.2
2015-Jul-22 12:33N 51°30' E 000°37'1110.6
2015-Jul-22 11:33N 51°27' E 000°21'4 3.8
2015-Jul-22 10:33N 51°28' E 000°15'0 0.0
2015-Jul-22 09:33N 51°28' E 000°15'0 0.0
2015-Jul-22 08:34N 51°28' E 000°15'0 0.0
2015-Jul-22 07:33N 51°28' E 000°15'0 0.0
2015-Jul-22 06:33N 51°28' E 000°15'0 0.0
2015-Jul-22 05:33N 51°28' E 000°15'1 0.5
2015-Jul-22 04:34N 51°28' E 000°16'9 9.2
2015-Jul-22 03:34N 51°30' E 000°30'1414.2
2015-Jul-22 02:34N 51°29' E 000°53'1615.6
2015-Jul-22 01:34N 51°29' E 001°18'  

Dump ship's entire track history